Franklin, NC

3:23 PM EDT on September 22, 2014 (GMT -0400)
APRSWXNET Rainbow Springs NC US | Change Station
CLOSE
Current Station
Personal Weather Station
Location: Otto, NC
Elevation: 3917 ft
Nearby Weather Stations

Elev 3917 ft 35.08 °N, 83.59 °W | Updated 32 minutes ago

Clear
Clear
65.0 °F
Feels Like 65.0 °F
N
2.0
Wind Variable Wind from WSW
Gusts 8.0 mph

Today
High -- | Low -- °F
--% Chance of Precip.
Yesterday
High -- | Low -- °F
Precip. -- in
7:22 AM 7:31 PM
Waning Crescent, 2% visible
Pressure 30.09 in
Visibility 10.0 miles
Clouds Clear
Dew Point 45.0 °F
Humidity 48%
Rainfall 0.09 in
Snow Depth Not available.
UV 7 out of 12
Pollen 6.50 out of 12
Air Quality Not available.
Flu Activity Not available.
METAR KRHP 221915Z AUTO 03006G15KT 10SM CLR 23/10 A3009 RMK AO2 T02290103

More Conditions Fewer Conditions

Pressure 30.09 in
Visibility 10.0 miles
Clouds Clear
Dew Point 45.0 °F
Humidity 48%
Rainfall 0.09 in
Snow Depth Not available.
UV 7 out of 12
Pollen 6.50 out of 12
Air Quality Not available.
Flu Activity Not available.
METAR KRHP 221915Z AUTO 03006G15KT 10SM CLR 23/10 A3009 RMK AO2 T02290103

More Conditions Fewer Conditions

10-Day Weather Forecast

Almanac

Astronomy

Sep. 22, 2014 Rise Set
Actual Time 7:22 AM EDT 7:31 PM EDT
Civil Twilight 6:57 AM EDT 7:56 PM EDT
Nautical Twilight 6:27 AM EDT 8:25 PM EDT
Astronomical Twilight 5:57 AM EDT 8:55 PM EDT
Moon 5:52 AM EDT 6:36 PM EDT
Length of Visible Light 12h 59m
Length of Day
12h 08m
Tomorrow will be 2m 12s shorter.
Waning Crescent, 2% of the Moon is Illuminated
Today
Waning Crescent
Sep 24
New
Oct 1
First Quarter
Oct 8
Full
Oct 15
Last Quarter

Today's Extremes

State Highs State Lows

Community

WunderPhotos

Upload Photos

1,755,514 photos uploaded!

WunderBlogs® & News

Nearby

Snow Depth

Station Depth Elevation
No new snow has been reported.

Earthquake Activity

City Distance Mag. Time & Date
Sweetwater, Tennessee 60 miles 2.5 3:54 PM EDT
2014-09-20
New Ellenton, South Carolina 155 miles 2.6 4:38 PM EDT
2014-09-19
Minimum magnitude displayed is 2.5.

Coastal Water Temperatures

Place Temperature
No Stations Reporting

Nearby Weather Stations